sensor_id;sensor_type;location;lat;lon;timestamp;P1;durP1;ratioP1;P2;durP2;ratioP2
38937;SDS011;24727;51.974;20.868;2024-03-23T00:53:07;33.50;;;18.23;;
38937;SDS011;24727;51.974;20.868;2024-03-23T00:55:33;34.80;;;18.60;;
38937;SDS011;24727;51.974;20.868;2024-03-23T00:57:59;35.67;;;17.55;;
38937;SDS011;24727;51.974;20.868;2024-03-23T01:00:27;34.65;;;17.95;;
38937;SDS011;24727;51.974;20.868;2024-03-23T01:02:59;40.53;;;18.52;;
38937;SDS011;24727;51.974;20.868;2024-03-23T01:05:25;36.17;;;17.40;;
38937;SDS011;24727;51.974;20.868;2024-03-23T01:07:51;37.47;;;18.83;;
38937;SDS011;24727;51.974;20.868;2024-03-23T01:10:28;33.38;;;16.58;;
38937;SDS011;24727;51.974;20.868;2024-03-23T01:12:54;38.22;;;18.77;;
38937;SDS011;24727;51.974;20.868;2024-03-23T01:15:19;39.45;;;18.48;;
38937;SDS011;24727;51.974;20.868;2024-03-23T01:17:48;39.05;;;18.80;;
38937;SDS011;24727;51.974;20.868;2024-03-23T01:20:33;36.67;;;18.45;;
38937;SDS011;24727;51.974;20.868;2024-03-23T01:22:58;35.35;;;19.48;;
38937;SDS011;24727;51.974;20.868;2024-03-23T01:25:43;34.20;;;17.95;;
38937;SDS011;24727;51.974;20.868;2024-03-23T01:28:33;37.28;;;18.15;;
38937;SDS011;24727;51.974;20.868;2024-03-23T01:30:59;38.90;;;18.23;;
38937;SDS011;24727;51.974;20.868;2024-03-23T01:33:25;38.90;;;18.65;;
38937;SDS011;24727;51.974;20.868;2024-03-23T01:35:53;37.60;;;17.85;;
38937;SDS011;24727;51.974;20.868;2024-03-23T01:38:24;40.17;;;19.10;;
38937;SDS011;24727;51.974;20.868;2024-03-23T01:40:56;40.33;;;19.88;;
38937;SDS011;24727;51.974;20.868;2024-03-23T01:43:31;42.78;;;18.90;;
38937;SDS011;24727;51.974;20.868;2024-03-23T01:45:57;42.65;;;20.65;;
38937;SDS011;24727;51.974;20.868;2024-03-23T01:48:23;46.17;;;20.77;;
38937;SDS011;24727;51.974;20.868;2024-03-23T01:50:49;43.35;;;22.17;;
38937;SDS011;24727;51.974;20.868;2024-03-23T01:53:15;43.45;;;21.48;;
38937;SDS011;24727;51.974;20.868;2024-03-23T01:55:42;42.42;;;21.45;;
38937;SDS011;24727;51.974;20.868;2024-03-23T01:58:09;50.75;;;22.85;;
38937;SDS011;24727;51.974;20.868;2024-03-23T02:00:35;45.50;;;22.10;;
38937;SDS011;24727;51.974;20.868;2024-03-23T02:03:25;43.22;;;20.67;;
38937;SDS011;24727;51.974;20.868;2024-03-23T02:05:53;40.88;;;20.35;;
38937;SDS011;24727;51.974;20.868;2024-03-23T02:08:20;49.38;;;21.38;;
38937;SDS011;24727;51.974;20.868;2024-03-23T02:10:47;47.85;;;22.10;;
38937;SDS011;24727;51.974;20.868;2024-03-23T02:13:14;48.15;;;21.13;;
38937;SDS011;24727;51.974;20.868;2024-03-23T02:15:41;51.20;;;23.48;;
38937;SDS011;24727;51.974;20.868;2024-03-23T02:18:08;49.45;;;22.65;;
38937;SDS011;24727;51.974;20.868;2024-03-23T02:20:41;48.40;;;23.20;;
38937;SDS011;24727;51.974;20.868;2024-03-23T02:23:16;48.80;;;22.45;;
38937;SDS011;24727;51.974;20.868;2024-03-23T02:25:45;48.38;;;22.50;;
38937;SDS011;24727;51.974;20.868;2024-03-23T02:28:20;44.10;;;20.75;;
38937;SDS011;24727;51.974;20.868;2024-03-23T02:30:48;47.22;;;21.48;;
38937;SDS011;24727;51.974;20.868;2024-03-23T02:33:14;46.83;;;22.08;;
38937;SDS011;24727;51.974;20.868;2024-03-23T02:35:41;52.70;;;21.50;;
38937;SDS011;24727;51.974;20.868;2024-03-23T02:38:11;42.08;;;20.10;;
38937;SDS011;24727;51.974;20.868;2024-03-23T02:40:52;42.95;;;20.25;;
38937;SDS011;24727;51.974;20.868;2024-03-23T02:43:18;54.58;;;24.13;;
38937;SDS011;24727;51.974;20.868;2024-03-23T02:45:44;53.42;;;25.13;;
38937;SDS011;24727;51.974;20.868;2024-03-23T02:48:13;55.17;;;24.20;;
38937;SDS011;24727;51.974;20.868;2024-03-23T02:50:41;49.92;;;24.15;;
38937;SDS011;24727;51.974;20.868;2024-03-23T02:53:09;47.10;;;21.80;;
38937;SDS011;24727;51.974;20.868;2024-03-23T02:55:35;50.60;;;22.95;;
38937;SDS011;24727;51.974;20.868;2024-03-23T02:58:01;46.90;;;22.08;;
38937;SDS011;24727;51.974;20.868;2024-03-23T03:00:37;52.40;;;24.00;;
38937;SDS011;24727;51.974;20.868;2024-03-23T03:03:03;53.17;;;22.88;;
38937;SDS011;24727;51.974;20.868;2024-03-23T03:08:23;49.70;;;21.55;;
38937;SDS011;24727;51.974;20.868;2024-03-23T03:10:49;49.75;;;21.80;;
38937;SDS011;24727;51.974;20.868;2024-03-23T03:13:15;53.72;;;23.27;;
38937;SDS011;24727;51.974;20.868;2024-03-23T03:15:42;52.60;;;23.58;;
38937;SDS011;24727;51.974;20.868;2024-03-23T03:18:09;55.08;;;23.98;;
38937;SDS011;24727;51.974;20.868;2024-03-23T03:20:54;55.28;;;23.33;;
38937;SDS011;24727;51.974;20.868;2024-03-23T03:23:20;50.95;;;22.27;;
38937;SDS011;24727;51.974;20.868;2024-03-23T03:25:46;52.90;;;22.63;;
38937;SDS011;24727;51.974;20.868;2024-03-23T03:28:18;56.42;;;23.95;;
38937;SDS011;24727;51.974;20.868;2024-03-23T03:30:46;55.83;;;23.75;;
38937;SDS011;24727;51.974;20.868;2024-03-23T03:33:12;64.43;;;24.23;;
38937;SDS011;24727;51.974;20.868;2024-03-23T03:35:43;52.28;;;22.92;;
38937;SDS011;24727;51.974;20.868;2024-03-23T03:38:10;52.08;;;23.23;;
38937;SDS011;24727;51.974;20.868;2024-03-23T03:40:36;55.85;;;24.73;;
38937;SDS011;24727;51.974;20.868;2024-03-23T03:43:02;67.05;;;24.63;;
38937;SDS011;24727;51.974;20.868;2024-03-23T03:45:34;60.42;;;26.73;;
38937;SDS011;24727;51.974;20.868;2024-03-23T03:48:00;54.85;;;26.00;;
38937;SDS011;24727;51.974;20.868;2024-03-23T03:50:34;63.88;;;26.42;;
38937;SDS011;24727;51.974;20.868;2024-03-23T03:53:00;61.60;;;26.35;;
38937;SDS011;24727;51.974;20.868;2024-03-23T03:55:26;60.80;;;25.92;;
38937;SDS011;24727;51.974;20.868;2024-03-23T03:57:52;62.78;;;26.38;;
38937;SDS011;24727;51.974;20.868;2024-03-23T04:00:23;60.00;;;26.23;;
38937;SDS011;24727;51.974;20.868;2024-03-23T04:02:59;60.90;;;27.15;;
38937;SDS011;24727;51.974;20.868;2024-03-23T04:05:24;59.28;;;25.17;;
38937;SDS011;24727;51.974;20.868;2024-03-23T04:07:50;67.72;;;27.10;;
38937;SDS011;24727;51.974;20.868;2024-03-23T04:10:16;69.78;;;27.95;;
38937;SDS011;24727;51.974;20.868;2024-03-23T04:12:42;68.85;;;30.15;;
38937;SDS011;24727;51.974;20.868;2024-03-23T04:15:17;62.58;;;27.83;;
38937;SDS011;24727;51.974;20.868;2024-03-23T04:18:02;64.40;;;27.33;;
38937;SDS011;24727;51.974;20.868;2024-03-23T04:20:37;64.18;;;26.58;;
38937;SDS011;24727;51.974;20.868;2024-03-23T04:23:03;59.63;;;26.33;;
38937;SDS011;24727;51.974;20.868;2024-03-23T04:25:29;61.92;;;27.05;;
38937;SDS011;24727;51.974;20.868;2024-03-23T04:27:58;56.80;;;24.55;;
38937;SDS011;24727;51.974;20.868;2024-03-23T04:30:47;55.13;;;23.40;;
38937;SDS011;24727;51.974;20.868;2024-03-23T04:36:31;57.65;;;24.48;;
38937;SDS011;24727;51.974;20.868;2024-03-23T04:39:07;58.78;;;25.67;;
38937;SDS011;24727;51.974;20.868;2024-03-23T04:41:36;65.00;;;26.02;;
38937;SDS011;24727;51.974;20.868;2024-03-23T04:44:27;63.17;;;27.42;;
38937;SDS011;24727;51.974;20.868;2024-03-23T04:47:01;61.28;;;24.88;;
38937;SDS011;24727;51.974;20.868;2024-03-23T04:49:47;54.17;;;24.10;;
38937;SDS011;24727;51.974;20.868;2024-03-23T04:52:40;49.85;;;22.92;;
38937;SDS011;24727;51.974;20.868;2024-03-23T05:01:17;52.42;;;24.73;;
38937;SDS011;24727;51.974;20.868;2024-03-23T05:10:12;45.30;;;22.90;;
38937;SDS011;24727;51.974;20.868;2024-03-23T05:13:00;50.45;;;22.00;;
38937;SDS011;24727;51.974;20.868;2024-03-23T05:15:29;45.63;;;21.13;;
38937;SDS011;24727;51.974;20.868;2024-03-23T05:18:11;49.47;;;23.00;;
38937;SDS011;24727;51.974;20.868;2024-03-23T05:20:37;50.50;;;22.83;;
38937;SDS011;24727;51.974;20.868;2024-03-23T05:26:34;49.75;;;24.13;;
38937;SDS011;24727;51.974;20.868;2024-03-23T05:29:01;43.13;;;22.50;;
38937;SDS011;24727;51.974;20.868;2024-03-23T05:35:07;39.35;;;19.98;;
38937;SDS011;24727;51.974;20.868;2024-03-23T05:43:47;48.33;;;23.25;;
38937;SDS011;24727;51.974;20.868;2024-03-23T05:46:24;38.85;;;19.13;;
38937;SDS011;24727;51.974;20.868;2024-03-23T05:48:54;44.08;;;21.05;;
38937;SDS011;24727;51.974;20.868;2024-03-23T05:51:34;39.25;;;19.10;;
38937;SDS011;24727;51.974;20.868;2024-03-23T05:57:35;45.22;;;21.38;;
38937;SDS011;24727;51.974;20.868;2024-03-23T06:00:01;34.53;;;18.20;;
38937;SDS011;24727;51.974;20.868;2024-03-23T06:02:47;33.45;;;16.85;;
38937;SDS011;24727;51.974;20.868;2024-03-23T06:05:22;39.95;;;19.55;;
38937;SDS011;24727;51.974;20.868;2024-03-23T06:07:49;34.28;;;18.33;;
38937;SDS011;24727;51.974;20.868;2024-03-23T06:10:30;46.90;;;20.92;;
38937;SDS011;24727;51.974;20.868;2024-03-23T06:15:58;41.80;;;20.30;;
38937;SDS011;24727;51.974;20.868;2024-03-23T06:18:59;42.90;;;19.75;;
38937;SDS011;24727;51.974;20.868;2024-03-23T06:24:16;42.85;;;22.27;;
38937;SDS011;24727;51.974;20.868;2024-03-23T06:26:54;49.15;;;23.23;;
38937;SDS011;24727;51.974;20.868;2024-03-23T06:30:00;60.08;;;24.27;;
38937;SDS011;24727;51.974;20.868;2024-03-23T06:32:25;49.85;;;22.50;;
38937;SDS011;24727;51.974;20.868;2024-03-23T06:35:12;44.22;;;21.30;;
38937;SDS011;24727;51.974;20.868;2024-03-23T06:37:54;45.38;;;21.25;;
38937;SDS011;24727;51.974;20.868;2024-03-23T06:40:29;51.50;;;21.27;;
38937;SDS011;24727;51.974;20.868;2024-03-23T06:45:36;53.65;;;21.00;;
38937;SDS011;24727;51.974;20.868;2024-03-23T06:48:14;43.42;;;19.50;;
38937;SDS011;24727;51.974;20.868;2024-03-23T06:50:40;37.97;;;19.52;;
38937;SDS011;24727;51.974;20.868;2024-03-23T06:53:33;43.13;;;19.98;;
38937;SDS011;24727;51.974;20.868;2024-03-23T06:56:26;41.33;;;19.48;;
38937;SDS011;24727;51.974;20.868;2024-03-23T07:01:26;36.05;;;16.70;;
38937;SDS011;24727;51.974;20.868;2024-03-23T07:03:53;38.75;;;18.15;;
38937;SDS011;24727;51.974;20.868;2024-03-23T07:06:20;36.38;;;17.50;;
38937;SDS011;24727;51.974;20.868;2024-03-23T07:08:48;31.67;;;16.10;;
38937;SDS011;24727;51.974;20.868;2024-03-23T07:11:18;35.15;;;17.50;;
38937;SDS011;24727;51.974;20.868;2024-03-23T07:13:50;37.28;;;16.70;;
38937;SDS011;24727;51.974;20.868;2024-03-23T07:16:17;36.22;;;17.05;;
38937;SDS011;24727;51.974;20.868;2024-03-23T07:18:43;35.00;;;15.57;;
38937;SDS011;24727;51.974;20.868;2024-03-23T07:21:09;34.40;;;15.40;;
38937;SDS011;24727;51.974;20.868;2024-03-23T07:23:35;30.20;;;15.88;;
38937;SDS011;24727;51.974;20.868;2024-03-23T07:26:04;30.92;;;15.52;;
38937;SDS011;24727;51.974;20.868;2024-03-23T07:28:31;26.25;;;13.15;;
38937;SDS011;24727;51.974;20.868;2024-03-23T07:31:05;33.78;;;15.88;;
38937;SDS011;24727;51.974;20.868;2024-03-23T07:33:34;28.80;;;14.85;;
38937;SDS011;24727;51.974;20.868;2024-03-23T07:36:10;28.98;;;14.10;;
38937;SDS011;24727;51.974;20.868;2024-03-23T07:38:36;27.55;;;15.43;;
38937;SDS011;24727;51.974;20.868;2024-03-23T07:41:15;27.30;;;14.48;;
38937;SDS011;24727;51.974;20.868;2024-03-23T07:43:55;36.10;;;17.50;;
38937;SDS011;24727;51.974;20.868;2024-03-23T07:46:21;25.48;;;14.00;;
38937;SDS011;24727;51.974;20.868;2024-03-23T07:48:59;32.03;;;16.33;;
38937;SDS011;24727;51.974;20.868;2024-03-23T07:51:25;27.80;;;14.45;;
38937;SDS011;24727;51.974;20.868;2024-03-23T07:54:03;25.08;;;13.90;;
38937;SDS011;24727;51.974;20.868;2024-03-23T07:56:49;23.48;;;12.30;;
38937;SDS011;24727;51.974;20.868;2024-03-23T07:59:15;27.20;;;13.80;;
38937;SDS011;24727;51.974;20.868;2024-03-23T08:01:50;28.45;;;12.98;;
38937;SDS011;24727;51.974;20.868;2024-03-23T08:04:33;24.98;;;13.80;;
38937;SDS011;24727;51.974;20.868;2024-03-23T08:07:36;20.83;;;12.43;;
38937;SDS011;24727;51.974;20.868;2024-03-23T08:10:12;22.33;;;12.43;;
38937;SDS011;24727;51.974;20.868;2024-03-23T08:13:19;23.38;;;12.70;;
38937;SDS011;24727;51.974;20.868;2024-03-23T08:15:45;22.33;;;11.70;;
38937;SDS011;24727;51.974;20.868;2024-03-23T08:18:17;23.73;;;12.23;;
38937;SDS011;24727;51.974;20.868;2024-03-23T08:20:45;29.95;;;12.82;;
38937;SDS011;24727;51.974;20.868;2024-03-23T08:23:11;25.85;;;12.75;;
38937;SDS011;24727;51.974;20.868;2024-03-23T08:25:37;22.85;;;11.55;;
38937;SDS011;24727;51.974;20.868;2024-03-23T08:28:03;22.45;;;12.63;;
38937;SDS011;24727;51.974;20.868;2024-03-23T08:30:34;19.55;;;10.98;;
38937;SDS011;24727;51.974;20.868;2024-03-23T08:33:00;21.00;;;11.38;;
38937;SDS011;24727;51.974;20.868;2024-03-23T08:35:27;23.92;;;12.32;;
38937;SDS011;24727;51.974;20.868;2024-03-23T08:37:58;20.58;;;11.23;;
38937;SDS011;24727;51.974;20.868;2024-03-23T08:43:29;20.25;;;11.13;;
38937;SDS011;24727;51.974;20.868;2024-03-23T08:48:54;17.47;;;9.83;;
38937;SDS011;24727;51.974;20.868;2024-03-23T08:51:20;21.80;;;10.65;;
38937;SDS011;24727;51.974;20.868;2024-03-23T08:53:46;20.48;;;11.10;;
38937;SDS011;24727;51.974;20.868;2024-03-23T08:56:13;19.02;;;10.63;;
38937;SDS011;24727;51.974;20.868;2024-03-23T08:58:39;25.88;;;10.00;;
38937;SDS011;24727;51.974;20.868;2024-03-23T09:01:08;18.13;;;9.50;;
38937;SDS011;24727;51.974;20.868;2024-03-23T09:03:40;16.83;;;10.48;;
38937;SDS011;24727;51.974;20.868;2024-03-23T09:06:11;18.88;;;8.90;;
38937;SDS011;24727;51.974;20.868;2024-03-23T09:08:39;16.13;;;9.18;;
38937;SDS011;24727;51.974;20.868;2024-03-23T09:11:06;14.35;;;8.18;;
38937;SDS011;24727;51.974;20.868;2024-03-23T09:13:33;14.85;;;8.98;;
38937;SDS011;24727;51.974;20.868;2024-03-23T09:16:00;16.45;;;9.30;;
38937;SDS011;24727;51.974;20.868;2024-03-23T09:18:27;17.92;;;9.15;;
38937;SDS011;24727;51.974;20.868;2024-03-23T09:20:52;16.35;;;8.65;;
38937;SDS011;24727;51.974;20.868;2024-03-23T09:23:20;14.10;;;8.15;;
38937;SDS011;24727;51.974;20.868;2024-03-23T09:25:46;16.48;;;8.98;;
38937;SDS011;24727;51.974;20.868;2024-03-23T09:28:12;14.98;;;9.13;;
38937;SDS011;24727;51.974;20.868;2024-03-23T09:30:38;14.07;;;8.80;;
38937;SDS011;24727;51.974;20.868;2024-03-23T09:33:13;13.50;;;8.50;;
38937;SDS011;24727;51.974;20.868;2024-03-23T09:35:42;13.45;;;7.55;;
38937;SDS011;24727;51.974;20.868;2024-03-23T09:38:09;14.10;;;8.30;;
38937;SDS011;24727;51.974;20.868;2024-03-23T09:40:41;13.52;;;8.70;;
38937;SDS011;24727;51.974;20.868;2024-03-23T09:43:08;16.42;;;9.18;;
38937;SDS011;24727;51.974;20.868;2024-03-23T09:45:36;12.98;;;8.82;;
38937;SDS011;24727;51.974;20.868;2024-03-23T09:48:06;16.17;;;9.00;;
38937;SDS011;24727;51.974;20.868;2024-03-23T09:50:35;12.75;;;7.88;;
38937;SDS011;24727;51.974;20.868;2024-03-23T09:53:09;13.32;;;7.90;;
38937;SDS011;24727;51.974;20.868;2024-03-23T09:55:39;14.50;;;8.55;;
38937;SDS011;24727;51.974;20.868;2024-03-23T09:58:06;13.45;;;8.52;;
38937;SDS011;24727;51.974;20.868;2024-03-23T10:00:33;10.32;;;6.35;;
38937;SDS011;24727;51.974;20.868;2024-03-23T10:03:00;12.75;;;6.68;;
38937;SDS011;24727;51.974;20.868;2024-03-23T10:05:27;15.32;;;7.45;;
38937;SDS011;24727;51.974;20.868;2024-03-23T10:07:54;11.95;;;7.68;;
38937;SDS011;24727;51.974;20.868;2024-03-23T10:10:20;9.48;;;6.38;;
38937;SDS011;24727;51.974;20.868;2024-03-23T10:12:49;9.52;;;6.53;;
38937;SDS011;24727;51.974;20.868;2024-03-23T10:15:19;11.55;;;7.07;;
38937;SDS011;24727;51.974;20.868;2024-03-23T10:17:46;13.60;;;7.78;;
38937;SDS011;24727;51.974;20.868;2024-03-23T10:20:12;11.63;;;6.97;;
38937;SDS011;24727;51.974;20.868;2024-03-23T10:22:38;14.32;;;7.63;;
38937;SDS011;24727;51.974;20.868;2024-03-23T10:25:08;13.02;;;7.43;;
38937;SDS011;24727;51.974;20.868;2024-03-23T10:27:35;15.25;;;6.75;;
38937;SDS011;24727;51.974;20.868;2024-03-23T10:30:08;10.02;;;6.70;;
38937;SDS011;24727;51.974;20.868;2024-03-23T10:32:35;7.18;;;5.75;;
38937;SDS011;24727;51.974;20.868;2024-03-23T10:35:23;10.90;;;7.07;;
38937;SDS011;24727;51.974;20.868;2024-03-23T10:37:48;13.00;;;7.55;;
38937;SDS011;24727;51.974;20.868;2024-03-23T10:40:16;11.05;;;6.60;;
38937;SDS011;24727;51.974;20.868;2024-03-23T10:42:43;9.88;;;5.97;;
38937;SDS011;24727;51.974;20.868;2024-03-23T10:45:09;11.98;;;9.15;;
38937;SDS011;24727;51.974;20.868;2024-03-23T10:47:36;11.48;;;7.00;;
38937;SDS011;24727;51.974;20.868;2024-03-23T10:50:06;11.68;;;7.57;;
38937;SDS011;24727;51.974;20.868;2024-03-23T10:52:32;11.70;;;6.50;;
38937;SDS011;24727;51.974;20.868;2024-03-23T10:54:59;10.60;;;6.30;;
38937;SDS011;24727;51.974;20.868;2024-03-23T10:57:31;9.82;;;6.45;;
38937;SDS011;24727;51.974;20.868;2024-03-23T11:00:02;10.52;;;7.20;;
38937;SDS011;24727;51.974;20.868;2024-03-23T11:02:29;8.07;;;5.47;;
38937;SDS011;24727;51.974;20.868;2024-03-23T11:04:55;11.18;;;6.63;;
38937;SDS011;24727;51.974;20.868;2024-03-23T11:09:50;9.13;;;6.47;;
38937;SDS011;24727;51.974;20.868;2024-03-23T11:12:24;9.25;;;5.80;;
38937;SDS011;24727;51.974;20.868;2024-03-23T11:14:55;9.52;;;5.97;;
38937;SDS011;24727;51.974;20.868;2024-03-23T11:17:25;11.40;;;6.00;;
38937;SDS011;24727;51.974;20.868;2024-03-23T11:19:55;9.80;;;5.75;;
38937;SDS011;24727;51.974;20.868;2024-03-23T11:25:19;9.45;;;5.68;;
38937;SDS011;24727;51.974;20.868;2024-03-23T11:27:48;8.43;;;5.90;;
38937;SDS011;24727;51.974;20.868;2024-03-23T11:30:16;8.50;;;6.00;;
38937;SDS011;24727;51.974;20.868;2024-03-23T11:32:47;10.45;;;7.65;;
38937;SDS011;24727;51.974;20.868;2024-03-23T11:40:40;8.75;;;6.35;;
38937;SDS011;24727;51.974;20.868;2024-03-23T11:43:08;11.02;;;6.65;;
38937;SDS011;24727;51.974;20.868;2024-03-23T11:45:37;8.93;;;6.43;;
38937;SDS011;24727;51.974;20.868;2024-03-23T11:48:06;10.85;;;6.82;;
38937;SDS011;24727;51.974;20.868;2024-03-23T11:50:33;10.20;;;7.25;;
38937;SDS011;24727;51.974;20.868;2024-03-23T11:53:09;8.98;;;6.97;;
38937;SDS011;24727;51.974;20.868;2024-03-23T11:55:58;9.18;;;6.65;;
38937;SDS011;24727;51.974;20.868;2024-03-23T11:58:28;9.52;;;7.40;;
38937;SDS011;24727;51.974;20.868;2024-03-23T12:00:57;9.15;;;6.50;;
38937;SDS011;24727;51.974;20.868;2024-03-23T12:03:24;8.30;;;6.32;;
38937;SDS011;24727;51.974;20.868;2024-03-23T12:05:51;8.52;;;6.18;;
38937;SDS011;24727;51.974;20.868;2024-03-23T12:08:22;12.27;;;7.65;;
38937;SDS011;24727;51.974;20.868;2024-03-23T12:10:50;9.70;;;6.50;;
38937;SDS011;24727;51.974;20.868;2024-03-23T12:13:18;9.70;;;6.97;;
38937;SDS011;24727;51.974;20.868;2024-03-23T12:15:45;8.15;;;6.30;;
38937;SDS011;24727;51.974;20.868;2024-03-23T12:18:12;11.77;;;6.75;;
38937;SDS011;24727;51.974;20.868;2024-03-23T12:20:39;12.82;;;7.85;;
38937;SDS011;24727;51.974;20.868;2024-03-23T12:23:05;10.88;;;6.82;;
38937;SDS011;24727;51.974;20.868;2024-03-23T12:25:38;8.60;;;6.90;;
38937;SDS011;24727;51.974;20.868;2024-03-23T12:28:05;9.45;;;6.28;;
38937;SDS011;24727;51.974;20.868;2024-03-23T12:30:35;6.50;;;5.45;;
38937;SDS011;24727;51.974;20.868;2024-03-23T12:33:03;8.52;;;6.07;;
38937;SDS011;24727;51.974;20.868;2024-03-23T12:35:29;9.55;;;6.55;;
38937;SDS011;24727;51.974;20.868;2024-03-23T12:37:55;9.07;;;5.80;;
38937;SDS011;24727;51.974;20.868;2024-03-23T12:40:22;8.13;;;6.07;;
38937;SDS011;24727;51.974;20.868;2024-03-23T12:42:47;6.95;;;5.53;;
38937;SDS011;24727;51.974;20.868;2024-03-23T12:45:13;9.85;;;6.35;;
38937;SDS011;24727;51.974;20.868;2024-03-23T12:47:39;8.95;;;6.25;;
38937;SDS011;24727;51.974;20.868;2024-03-23T12:50:05;10.50;;;5.93;;
38937;SDS011;24727;51.974;20.868;2024-03-23T12:52:35;8.50;;;6.38;;
38937;SDS011;24727;51.974;20.868;2024-03-23T12:55:01;6.90;;;5.22;;
38937;SDS011;24727;51.974;20.868;2024-03-23T12:57:28;10.23;;;5.25;;
38937;SDS011;24727;51.974;20.868;2024-03-23T12:59:54;8.45;;;4.80;;
38937;SDS011;24727;51.974;20.868;2024-03-23T13:02:20;8.13;;;4.78;;
38937;SDS011;24727;51.974;20.868;2024-03-23T13:04:49;6.55;;;4.13;;
38937;SDS011;24727;51.974;20.868;2024-03-23T13:07:16;5.20;;;4.05;;
38937;SDS011;24727;51.974;20.868;2024-03-23T13:09:42;7.85;;;3.97;;
38937;SDS011;24727;51.974;20.868;2024-03-23T13:12:08;8.02;;;5.15;;
38937;SDS011;24727;51.974;20.868;2024-03-23T13:14:34;6.40;;;4.97;;
38937;SDS011;24727;51.974;20.868;2024-03-23T13:17:00;6.72;;;4.63;;
38937;SDS011;24727;51.974;20.868;2024-03-23T13:19:27;8.13;;;4.80;;
38937;SDS011;24727;51.974;20.868;2024-03-23T13:21:56;6.50;;;4.95;;
38937;SDS011;24727;51.974;20.868;2024-03-23T13:24:22;6.18;;;4.78;;
38937;SDS011;24727;51.974;20.868;2024-03-23T13:26:50;7.97;;;5.68;;
38937;SDS011;24727;51.974;20.868;2024-03-23T13:29:17;9.38;;;4.97;;
38937;SDS011;24727;51.974;20.868;2024-03-23T13:31:44;10.23;;;5.50;;
38937;SDS011;24727;51.974;20.868;2024-03-23T13:34:16;7.63;;;5.22;;
38937;SDS011;24727;51.974;20.868;2024-03-23T13:36:42;7.13;;;5.10;;
38937;SDS011;24727;51.974;20.868;2024-03-23T13:39:09;8.88;;;6.15;;
38937;SDS011;24727;51.974;20.868;2024-03-23T13:41:38;7.60;;;5.82;;
38937;SDS011;24727;51.974;20.868;2024-03-23T13:44:05;8.68;;;6.30;;
38937;SDS011;24727;51.974;20.868;2024-03-23T13:46:32;8.48;;;6.07;;
38937;SDS011;24727;51.974;20.868;2024-03-23T13:48:58;9.63;;;6.28;;
38937;SDS011;24727;51.974;20.868;2024-03-23T13:51:24;10.95;;;7.50;;
38937;SDS011;24727;51.974;20.868;2024-03-23T13:53:54;9.65;;;6.15;;
38937;SDS011;24727;51.974;20.868;2024-03-23T13:56:21;8.90;;;6.28;;
38937;SDS011;24727;51.974;20.868;2024-03-23T13:58:48;8.85;;;6.25;;
38937;SDS011;24727;51.974;20.868;2024-03-23T14:01:14;12.10;;;6.70;;
38937;SDS011;24727;51.974;20.868;2024-03-23T14:03:41;8.32;;;6.40;;
38937;SDS011;24727;51.974;20.868;2024-03-23T14:06:08;8.32;;;6.30;;
38937;SDS011;24727;51.974;20.868;2024-03-23T14:08:34;8.15;;;5.70;;
38937;SDS011;24727;51.974;20.868;2024-03-23T14:11:02;8.63;;;4.95;;
38937;SDS011;24727;51.974;20.868;2024-03-23T14:13:29;8.07;;;6.07;;
38937;SDS011;24727;51.974;20.868;2024-03-23T14:15:55;8.18;;;6.03;;
38937;SDS011;24727;51.974;20.868;2024-03-23T14:18:20;6.68;;;4.43;;
38937;SDS011;24727;51.974;20.868;2024-03-23T14:20:49;7.70;;;5.70;;
38937;SDS011;24727;51.974;20.868;2024-03-23T14:23:15;6.95;;;5.47;;
38937;SDS011;24727;51.974;20.868;2024-03-23T14:25:42;8.70;;;6.13;;
38937;SDS011;24727;51.974;20.868;2024-03-23T14:28:08;8.32;;;6.03;;
38937;SDS011;24727;51.974;20.868;2024-03-23T14:30:43;8.05;;;5.60;;
38937;SDS011;24727;51.974;20.868;2024-03-23T14:33:09;7.90;;;5.50;;
38937;SDS011;24727;51.974;20.868;2024-03-23T14:35:35;10.07;;;5.80;;
38937;SDS011;24727;51.974;20.868;2024-03-23T14:38:01;9.23;;;6.45;;
38937;SDS011;24727;51.974;20.868;2024-03-23T14:40:27;9.05;;;6.63;;
38937;SDS011;24727;51.974;20.868;2024-03-23T14:42:54;13.07;;;10.35;;
38937;SDS011;24727;51.974;20.868;2024-03-23T14:45:23;12.25;;;8.15;;
38937;SDS011;24727;51.974;20.868;2024-03-23T14:47:52;9.07;;;7.20;;
38937;SDS011;24727;51.974;20.868;2024-03-23T14:50:18;14.25;;;9.48;;
38937;SDS011;24727;51.974;20.868;2024-03-23T14:52:47;10.40;;;8.77;;
38937;SDS011;24727;51.974;20.868;2024-03-23T14:55:13;11.05;;;9.02;;
38937;SDS011;24727;51.974;20.868;2024-03-23T14:57:39;12.90;;;9.88;;
38937;SDS011;24727;51.974;20.868;2024-03-23T15:00:08;13.15;;;8.90;;
38937;SDS011;24727;51.974;20.868;2024-03-23T15:02:38;14.40;;;8.48;;
38937;SDS011;24727;51.974;20.868;2024-03-23T15:05:05;11.35;;;9.15;;
38937;SDS011;24727;51.974;20.868;2024-03-23T15:07:35;13.77;;;9.20;;
38937;SDS011;24727;51.974;20.868;2024-03-23T15:10:04;10.88;;;8.30;;
38937;SDS011;24727;51.974;20.868;2024-03-23T15:12:31;14.15;;;9.90;;
38937;SDS011;24727;51.974;20.868;2024-03-23T15:14:59;15.57;;;9.60;;
38937;SDS011;24727;51.974;20.868;2024-03-23T15:17:25;14.13;;;11.30;;
38937;SDS011;24727;51.974;20.868;2024-03-23T15:19:51;23.20;;;14.27;;
38937;SDS011;24727;51.974;20.868;2024-03-23T15:22:19;22.30;;;13.45;;
38937;SDS011;24727;51.974;20.868;2024-03-23T15:24:46;13.50;;;10.68;;
38937;SDS011;24727;51.974;20.868;2024-03-23T15:27:12;14.68;;;8.63;;
38937;SDS011;24727;51.974;20.868;2024-03-23T15:29:44;10.38;;;7.88;;
38937;SDS011;24727;51.974;20.868;2024-03-23T15:32:11;14.55;;;9.07;;
38937;SDS011;24727;51.974;20.868;2024-03-23T15:34:37;15.20;;;9.30;;
38937;SDS011;24727;51.974;20.868;2024-03-23T15:37:09;16.65;;;10.18;;
38937;SDS011;24727;51.974;20.868;2024-03-23T15:39:35;12.30;;;8.73;;
38937;SDS011;24727;51.974;20.868;2024-03-23T15:42:01;18.35;;;8.60;;
38937;SDS011;24727;51.974;20.868;2024-03-23T15:44:29;15.05;;;8.65;;
38937;SDS011;24727;51.974;20.868;2024-03-23T15:46:56;14.05;;;9.18;;
38937;SDS011;24727;51.974;20.868;2024-03-23T15:49:31;13.82;;;8.48;;
38937;SDS011;24727;51.974;20.868;2024-03-23T15:52:00;14.82;;;9.32;;
38937;SDS011;24727;51.974;20.868;2024-03-23T15:54:26;10.98;;;7.95;;
38937;SDS011;24727;51.974;20.868;2024-03-23T15:56:52;18.17;;;11.13;;
38937;SDS011;24727;51.974;20.868;2024-03-23T15:59:17;29.33;;;17.00;;
38937;SDS011;24727;51.974;20.868;2024-03-23T16:01:43;8.45;;;6.72;;
38937;SDS011;24727;51.974;20.868;2024-03-23T16:04:10;7.90;;;6.10;;
38937;SDS011;24727;51.974;20.868;2024-03-23T16:06:38;9.20;;;6.07;;
38937;SDS011;24727;51.974;20.868;2024-03-23T16:09:04;9.52;;;4.70;;
38937;SDS011;24727;51.974;20.868;2024-03-23T16:11:30;9.18;;;5.30;;
38937;SDS011;24727;51.974;20.868;2024-03-23T16:13:56;8.10;;;5.05;;
38937;SDS011;24727;51.974;20.868;2024-03-23T16:16:21;8.82;;;5.45;;
38937;SDS011;24727;51.974;20.868;2024-03-23T16:18:48;9.90;;;6.22;;
38937;SDS011;24727;51.974;20.868;2024-03-23T16:21:14;6.45;;;4.72;;
38937;SDS011;24727;51.974;20.868;2024-03-23T16:23:42;8.63;;;5.95;;
38937;SDS011;24727;51.974;20.868;2024-03-23T16:26:10;7.20;;;6.25;;
38937;SDS011;24727;51.974;20.868;2024-03-23T16:28:37;13.38;;;9.30;;